createdAt,value
2018-07-26T00:00:38.864Z,25.89
2018-07-26T00:01:38.911Z,25.86
2018-07-26T00:02:38.841Z,25.89
2018-07-26T00:03:38.883Z,25.85
2018-07-26T00:04:38.825Z,25.84
2018-07-26T00:05:38.840Z,25.85
2018-07-26T00:06:38.893Z,25.84
2018-07-26T00:07:38.865Z,25.83
2018-07-26T00:08:38.877Z,25.75
2018-07-26T00:09:38.823Z,25.74
2018-07-26T00:10:38.848Z,25.76
2018-07-26T00:11:38.880Z,25.7
2018-07-26T00:12:38.844Z,25.71
2018-07-26T00:13:39.203Z,25.7
2018-07-26T00:14:38.895Z,25.66
2018-07-26T00:15:38.854Z,25.65
2018-07-26T00:16:38.887Z,25.64
2018-07-26T00:17:38.867Z,25.6
2018-07-26T00:18:38.851Z,25.58
2018-07-26T00:19:39.337Z,25.58
2018-07-26T00:20:38.885Z,25.59
2018-07-26T00:21:39.433Z,25.56
2018-07-26T00:22:38.846Z,25.57
2018-07-26T00:23:38.835Z,25.56
2018-07-26T00:24:38.840Z,25.52
2018-07-26T00:25:38.814Z,25.44
2018-07-26T00:26:38.848Z,25.44
2018-07-26T00:27:39.435Z,25.45
2018-07-26T00:28:38.828Z,25.33
2018-07-26T00:29:38.860Z,25.18
2018-07-26T00:30:38.846Z,25.24
2018-07-26T00:31:38.845Z,25.29
2018-07-26T00:32:38.848Z,25.27
2018-07-26T00:33:38.859Z,25.31
2018-07-26T00:34:38.819Z,25.3
2018-07-26T00:35:38.829Z,25.18
2018-07-26T00:36:38.847Z,25.18
2018-07-26T00:37:38.826Z,25.2
2018-07-26T00:38:38.818Z,25.17
2018-07-26T00:39:38.860Z,25.19
2018-07-26T00:40:38.833Z,25.19
2018-07-26T00:41:38.839Z,25.19
2018-07-26T00:42:38.838Z,25.18
2018-07-26T00:43:38.861Z,25.18
2018-07-26T00:44:38.864Z,25.13
2018-07-26T00:45:38.880Z,25.17
2018-07-26T00:46:38.907Z,25.15
2018-07-26T00:47:38.845Z,25.15
2018-07-26T00:48:39.248Z,25.13
2018-07-26T00:49:38.830Z,25.09
2018-07-26T00:50:39.218Z,25.03
2018-07-26T00:51:38.873Z,25.02
2018-07-26T00:52:38.889Z,25.02
2018-07-26T00:53:38.903Z,25.04
2018-07-26T00:54:38.987Z,25.04
2018-07-26T00:55:38.832Z,25.05
2018-07-26T00:56:38.875Z,25.04
2018-07-26T00:57:38.874Z,24.99
2018-07-26T00:58:38.965Z,25
2018-07-26T00:59:38.965Z,25.02
2018-07-26T01:00:38.835Z,24.95
2018-07-26T01:01:39.023Z,24.96
2018-07-26T01:02:38.856Z,24.98
2018-07-26T01:03:38.902Z,24.96
2018-07-26T01:04:38.835Z,24.95
2018-07-26T01:05:38.912Z,24.98
2018-07-26T01:06:38.888Z,24.96
2018-07-26T01:07:38.847Z,25
2018-07-26T01:08:38.855Z,25
2018-07-26T01:09:39.528Z,25
2018-07-26T01:10:39.117Z,24.99
2018-07-26T01:11:38.841Z,24.95
2018-07-26T01:12:38.905Z,24.9
2018-07-26T01:13:38.829Z,24.93
2018-07-26T01:14:38.831Z,24.93
2018-07-26T01:15:38.844Z,24.89
2018-07-26T01:16:38.854Z,24.88
2018-07-26T01:17:38.870Z,24.88
2018-07-26T01:18:38.932Z,24.88
2018-07-26T01:19:38.862Z,24.82
2018-07-26T01:20:38.849Z,24.81
2018-07-26T01:21:38.805Z,24.81
2018-07-26T01:22:38.811Z,24.79
2018-07-26T01:23:38.865Z,24.75
2018-07-26T01:24:38.854Z,24.72
2018-07-26T01:25:38.839Z,24.73
2018-07-26T01:26:38.809Z,24.72
2018-07-26T01:27:38.816Z,24.7
2018-07-26T01:28:38.839Z,24.72
2018-07-26T01:29:38.936Z,24.72
2018-07-26T01:30:38.908Z,24.67
2018-07-26T01:31:38.848Z,24.69
2018-07-26T01:32:38.837Z,24.68
2018-07-26T01:33:39.160Z,24.66
2018-07-26T01:34:38.947Z,24.64
2018-07-26T01:35:38.911Z,24.62
2018-07-26T01:36:38.820Z,24.6
2018-07-26T01:37:38.891Z,24.61
2018-07-26T01:38:38.846Z,24.59
2018-07-26T01:39:38.810Z,24.58
2018-07-26T01:40:39.068Z,24.57
2018-07-26T01:41:38.985Z,24.52
2018-07-26T01:42:38.818Z,24.55
2018-07-26T01:43:38.805Z,24.54
2018-07-26T01:44:38.824Z,24.52
2018-07-26T01:45:38.831Z,24.52
2018-07-26T01:46:38.827Z,24.53
2018-07-26T01:47:38.808Z,24.52
2018-07-26T01:48:38.824Z,24.52
2018-07-26T01:49:38.849Z,24.54
2018-07-26T01:50:38.816Z,24.56
2018-07-26T01:51:38.856Z,24.56
2018-07-26T01:52:38.799Z,24.54
2018-07-26T01:53:38.797Z,24.52
2018-07-26T01:54:39.172Z,24.51
2018-07-26T01:55:38.817Z,24.52
2018-07-26T01:56:38.842Z,24.52
2018-07-26T01:57:38.809Z,24.52
2018-07-26T01:58:38.865Z,24.49
2018-07-26T01:59:38.849Z,24.51
2018-07-26T02:00:38.853Z,24.49
2018-07-26T02:01:39.332Z,24.47
2018-07-26T02:02:38.825Z,24.47
2018-07-26T02:03:38.850Z,24.47
2018-07-26T02:04:38.795Z,24.46
2018-07-26T02:05:38.873Z,24.49
2018-07-26T02:06:38.841Z,24.47
2018-07-26T02:07:38.884Z,24.46
2018-07-26T02:08:38.836Z,24.49
2018-07-26T02:09:38.820Z,24.47
2018-07-26T02:10:39.146Z,24.49
2018-07-26T02:11:38.812Z,24.49
2018-07-26T02:12:38.814Z,24.5
2018-07-26T02:13:38.849Z,24.5
2018-07-26T02:14:38.855Z,24.5
2018-07-26T02:15:38.811Z,24.47
2018-07-26T02:16:38.856Z,24.5
2018-07-26T02:17:38.800Z,24.49
2018-07-26T02:18:38.852Z,24.48
2018-07-26T02:19:38.811Z,24.48
2018-07-26T02:20:38.802Z,24.49
2018-07-26T02:21:38.820Z,24.47
2018-07-26T02:22:38.806Z,24.47
2018-07-26T02:23:38.857Z,24.44
2018-07-26T02:24:38.838Z,24.45
2018-07-26T02:25:38.894Z,24.44
2018-07-26T02:26:38.961Z,24.43
2018-07-26T02:27:38.821Z,24.43
2018-07-26T02:28:38.875Z,24.44
2018-07-26T02:29:38.827Z,24.43
2018-07-26T02:30:38.852Z,24.43
2018-07-26T02:31:38.861Z,24.43
2018-07-26T02:32:38.854Z,24.4
2018-07-26T02:33:38.836Z,24.41
2018-07-26T02:34:38.824Z,24.42
2018-07-26T02:35:38.858Z,24.41
2018-07-26T02:36:39.139Z,24.41
2018-07-26T02:37:38.874Z,24.42
2018-07-26T02:38:38.824Z,24.4
2018-07-26T02:39:38.814Z,24.41
2018-07-26T02:40:38.862Z,24.42
2018-07-26T02:41:38.853Z,24.37
2018-07-26T02:42:38.865Z,24.34
2018-07-26T02:43:38.837Z,24.27
2018-07-26T02:44:38.857Z,24.17
2018-07-26T02:45:38.938Z,24.2
2018-07-26T02:46:39.419Z,24.1
2018-07-26T02:47:38.878Z,24.08
2018-07-26T02:48:38.973Z,24.02
2018-07-26T02:49:38.840Z,23.98
2018-07-26T02:50:38.803Z,23.96
2018-07-26T02:51:39.000Z,23.95
2018-07-26T02:52:38.808Z,23.89
2018-07-26T02:53:38.853Z,23.86
2018-07-26T02:54:38.819Z,23.86
2018-07-26T02:55:38.805Z,23.86
2018-07-26T02:56:38.819Z,23.84
2018-07-26T02:57:38.839Z,23.84
2018-07-26T02:58:38.840Z,23.85
2018-07-26T02:59:38.897Z,23.85
2018-07-26T03:00:38.840Z,23.85
2018-07-26T03:01:38.829Z,23.85
2018-07-26T03:02:38.863Z,23.86
2018-07-26T03:03:38.852Z,23.86
2018-07-26T03:04:38.867Z,23.85
2018-07-26T03:05:38.893Z,23.83
2018-07-26T03:06:38.829Z,23.78
2018-07-26T03:07:38.810Z,23.76
2018-07-26T03:08:38.865Z,23.73
2018-07-26T03:09:38.841Z,23.68
2018-07-26T03:10:38.882Z,23.64
2018-07-26T03:11:38.825Z,23.63
2018-07-26T03:12:38.800Z,23.64
2018-07-26T03:13:38.828Z,23.64
2018-07-26T03:14:38.810Z,23.63
2018-07-26T03:15:38.835Z,23.65
2018-07-26T03:16:38.816Z,23.62
2018-07-26T03:17:38.840Z,23.63
2018-07-26T03:18:38.824Z,23.63
2018-07-26T03:19:38.892Z,23.61
2018-07-26T03:20:38.846Z,23.61
2018-07-26T03:21:38.821Z,23.61
2018-07-26T03:22:38.840Z,23.59
2018-07-26T03:23:38.835Z,23.58
2018-07-26T03:24:38.853Z,23.56
2018-07-26T03:25:38.797Z,23.55
2018-07-26T03:26:38.836Z,23.54
2018-07-26T03:27:38.787Z,23.53
2018-07-26T03:28:38.797Z,23.53
2018-07-26T03:29:38.979Z,23.53
2018-07-26T03:30:38.816Z,23.53
2018-07-26T03:31:38.885Z,23.52
2018-07-26T03:32:38.822Z,23.52
2018-07-26T03:33:38.883Z,23.49
2018-07-26T03:34:38.867Z,23.51
2018-07-26T03:35:38.789Z,23.51
2018-07-26T03:36:38.829Z,23.47
2018-07-26T03:37:38.808Z,23.47
2018-07-26T03:38:38.789Z,23.46
2018-07-26T03:39:38.825Z,23.47
2018-07-26T03:40:38.856Z,23.43
2018-07-26T03:41:38.795Z,23.41
2018-07-26T03:42:38.829Z,23.4
2018-07-26T03:43:39.642Z,23.4
2018-07-26T03:44:38.800Z,23.38
2018-07-26T03:45:38.812Z,23.4
2018-07-26T03:46:38.998Z,23.4
2018-07-26T03:47:38.874Z,23.4
2018-07-26T03:48:38.774Z,23.4
2018-07-26T03:49:38.798Z,23.4
2018-07-26T03:50:38.867Z,23.39
2018-07-26T03:51:38.829Z,23.35
2018-07-26T03:52:39.177Z,23.38
2018-07-26T03:53:38.802Z,23.36
2018-07-26T03:54:38.985Z,23.36
2018-07-26T03:55:38.820Z,23.35
2018-07-26T03:56:38.846Z,23.36
2018-07-26T03:57:38.821Z,23.39
2018-07-26T03:58:38.786Z,23.4
2018-07-26T03:59:38.804Z,23.37
2018-07-26T04:00:38.930Z,23.35
2018-07-26T04:02:44.695Z,23.32
2018-07-26T04:03:38.846Z,23.3
2018-07-26T04:04:38.783Z,23.28
2018-07-26T04:05:38.820Z,23.25
2018-07-26T04:06:38.785Z,23.24
2018-07-26T04:07:38.793Z,23.23
2018-07-26T04:08:38.779Z,23.23
2018-07-26T04:09:38.836Z,23.22
2018-07-26T04:10:38.820Z,23.21
2018-07-26T04:11:38.823Z,23.21
2018-07-26T04:12:38.802Z,23.21
2018-07-26T04:13:38.800Z,23.18
2018-07-26T04:14:38.783Z,23.2
2018-07-26T04:15:38.801Z,23.18
2018-07-26T04:16:39.126Z,23.21
2018-07-26T04:17:38.796Z,23.2
2018-07-26T04:18:38.773Z,23.18
2018-07-26T04:19:38.782Z,23.21
2018-07-26T04:20:38.795Z,23.12
2018-07-26T04:21:38.824Z,23.09
2018-07-26T04:22:38.813Z,23.11
2018-07-26T04:23:38.783Z,23.07
2018-07-26T04:24:38.804Z,23.03
2018-07-26T04:25:38.795Z,22.96
2018-07-26T04:26:38.843Z,22.97
2018-07-26T04:27:38.806Z,22.9
2018-07-26T04:28:38.809Z,22.8
2018-07-26T04:29:38.799Z,22.7
2018-07-26T04:30:38.810Z,22.66
2018-07-26T04:31:38.823Z,22.67
2018-07-26T04:32:38.781Z,22.64
2018-07-26T04:33:38.815Z,22.61
2018-07-26T04:34:38.774Z,22.51
2018-07-26T04:35:38.775Z,22.42
2018-07-26T04:36:38.814Z,22.35
2018-07-26T04:37:38.882Z,22.36
2018-07-26T04:38:38.792Z,22.34
2018-07-26T04:39:38.913Z,22.29
2018-07-26T04:40:38.960Z,22.3
2018-07-26T04:41:38.809Z,22.3
2018-07-26T04:42:38.821Z,22.36
2018-07-26T04:43:38.781Z,22.38
2018-07-26T04:44:38.910Z,22.42
2018-07-26T04:45:38.836Z,22.44
2018-07-26T04:46:38.813Z,22.47
2018-07-26T04:47:38.828Z,22.52
2018-07-26T04:48:38.778Z,22.53
2018-07-26T04:49:38.784Z,22.57
2018-07-26T04:50:38.837Z,22.57
2018-07-26T04:51:38.788Z,22.6
2018-07-26T04:52:39.088Z,22.62
2018-07-26T04:53:38.786Z,22.62
2018-07-26T04:54:39.696Z,22.63
2018-07-26T04:55:38.811Z,22.66
2018-07-26T04:56:38.831Z,22.67
2018-07-26T04:57:38.795Z,22.7
2018-07-26T04:58:38.803Z,22.67
2018-07-26T04:59:38.838Z,22.65
2018-07-26T05:00:38.797Z,22.7
2018-07-26T05:01:38.974Z,22.73
2018-07-26T05:02:38.798Z,22.75
2018-07-26T05:03:38.775Z,22.75
2018-07-26T05:04:38.832Z,22.76
2018-07-26T05:05:38.772Z,22.8
2018-07-26T05:06:38.830Z,22.83
2018-07-26T05:07:38.939Z,22.87
2018-07-26T05:08:38.770Z,22.88
2018-07-26T05:09:38.818Z,22.93
2018-07-26T05:10:38.833Z,22.94
2018-07-26T05:11:38.840Z,22.94
2018-07-26T05:12:38.831Z,22.96
2018-07-26T05:13:38.811Z,22.98
2018-07-26T05:14:39.006Z,23.01
2018-07-26T05:15:38.953Z,23.04
2018-07-26T05:16:38.759Z,23.04
2018-07-26T05:17:38.893Z,23.06
2018-07-26T05:18:38.849Z,23.07
2018-07-26T05:19:38.774Z,23.09
2018-07-26T05:20:38.795Z,23.11
2018-07-26T05:21:38.850Z,23.1
2018-07-26T05:22:38.776Z,23.15
2018-07-26T05:23:38.783Z,23.18
2018-07-26T05:24:38.848Z,23.19
2018-07-26T05:25:38.769Z,23.2
2018-07-26T05:26:38.796Z,23.24
2018-07-26T05:27:39.239Z,23.26
2018-07-26T05:28:38.763Z,23.27
2018-07-26T05:29:38.801Z,23.3
2018-07-26T05:30:38.808Z,23.28
2018-07-26T05:31:38.838Z,23.32
2018-07-26T05:32:38.793Z,23.34
2018-07-26T05:33:38.777Z,23.32
2018-07-26T05:34:38.781Z,23.34
2018-07-26T05:35:38.776Z,23.33
2018-07-26T05:36:38.759Z,23.38
2018-07-26T05:37:39.256Z,23.38
2018-07-26T05:38:38.802Z,23.39
2018-07-26T05:39:38.786Z,23.44
2018-07-26T05:40:38.780Z,23.44
2018-07-26T05:41:38.780Z,23.45
2018-07-26T05:42:38.770Z,23.48
2018-07-26T05:43:38.788Z,23.43
2018-07-26T05:44:38.758Z,23.43
2018-07-26T05:45:38.792Z,23.47
2018-07-26T05:46:38.754Z,23.47
2018-07-26T05:47:38.782Z,23.46
2018-07-26T05:48:38.744Z,23.49
2018-07-26T05:49:38.786Z,23.51
2018-07-26T05:50:38.793Z,23.51
2018-07-26T05:51:38.779Z,23.56
2018-07-26T05:52:38.791Z,23.56
2018-07-26T05:53:38.781Z,23.6
2018-07-26T05:54:38.796Z,23.61
2018-07-26T05:55:38.799Z,23.62
2018-07-26T05:56:38.808Z,23.66
2018-07-26T05:57:38.845Z,23.68
2018-07-26T05:58:38.808Z,23.7
2018-07-26T05:59:38.789Z,23.74
2018-07-26T06:00:38.788Z,23.77
2018-07-26T06:01:38.753Z,23.79
2018-07-26T06:02:38.845Z,23.81
2018-07-26T06:03:38.780Z,23.86
2018-07-26T06:04:38.833Z,23.87
2018-07-26T06:05:38.867Z,23.88
2018-07-26T06:06:38.856Z,23.88
2018-07-26T06:07:38.826Z,23.92
2018-07-26T06:08:38.756Z,23.93
2018-07-26T06:09:39.385Z,23.96
2018-07-26T06:10:38.779Z,24
2018-07-26T06:11:38.767Z,24.04
2018-07-26T06:12:38.799Z,24.06
2018-07-26T06:13:38.766Z,24.1
2018-07-26T06:14:38.956Z,24.11
2018-07-26T06:15:38.756Z,24.14
2018-07-26T06:16:38.761Z,24.18
2018-07-26T06:17:38.858Z,24.19
2018-07-26T06:18:38.766Z,24.23
2018-07-26T06:19:38.768Z,24.23
2018-07-26T06:20:39.338Z,24.26
2018-07-26T06:21:38.824Z,24.26
2018-07-26T06:22:38.784Z,24.3
2018-07-26T06:23:38.756Z,24.31
2018-07-26T06:24:38.795Z,24.34
2018-07-26T06:25:38.750Z,24.36
2018-07-26T06:26:38.867Z,24.36
2018-07-26T06:27:38.868Z,24.38
2018-07-26T06:28:38.797Z,24.42
2018-07-26T06:29:38.754Z,24.44
2018-07-26T06:30:38.852Z,24.45
2018-07-26T06:31:38.771Z,24.49
2018-07-26T06:32:38.780Z,24.51
2018-07-26T06:33:40.342Z,24.56
2018-07-26T06:34:38.778Z,24.57
2018-07-26T06:35:39.039Z,24.6
2018-07-26T06:36:38.891Z,24.63
2018-07-26T06:37:38.819Z,24.65
2018-07-26T06:38:38.761Z,24.7
2018-07-26T06:39:38.770Z,24.74
2018-07-26T06:40:38.767Z,24.75
2018-07-26T06:41:39.116Z,24.78
2018-07-26T06:42:38.809Z,24.81
2018-07-26T06:43:38.813Z,24.82
2018-07-26T06:44:38.751Z,24.86
2018-07-26T06:45:39.645Z,24.88
2018-07-26T06:46:38.803Z,24.88
2018-07-26T06:47:38.765Z,24.9
2018-07-26T06:48:38.758Z,24.91
2018-07-26T06:49:38.755Z,24.92
2018-07-26T06:50:38.806Z,24.93
2018-07-26T06:51:38.916Z,24.95
2018-07-26T06:52:38.758Z,24.99
2018-07-26T06:53:38.781Z,25.01
2018-07-26T06:54:38.771Z,25.05
2018-07-26T06:55:38.742Z,25.07
2018-07-26T06:56:38.799Z,25.11
2018-07-26T06:57:38.749Z,25.12
2018-07-26T06:58:38.774Z,25.14
2018-07-26T06:59:38.769Z,25.19
2018-07-26T07:00:38.819Z,25.21
2018-07-26T07:01:38.784Z,25.23
2018-07-26T07:02:38.763Z,25.24
2018-07-26T07:03:38.743Z,25.25
2018-07-26T07:04:38.826Z,25.25
2018-07-26T07:05:38.772Z,25.29
2018-07-26T07:06:38.762Z,25.32
2018-07-26T07:07:38.797Z,25.37
2018-07-26T07:08:38.749Z,25.41
2018-07-26T07:09:38.755Z,25.44
2018-07-26T07:10:38.801Z,25.49
2018-07-26T07:11:38.761Z,25.51
2018-07-26T07:12:38.797Z,25.53
2018-07-26T07:13:38.755Z,25.58
2018-07-26T07:14:38.829Z,25.61
2018-07-26T07:15:38.779Z,25.64
2018-07-26T07:16:38.774Z,25.68
2018-07-26T07:17:38.845Z,25.7
2018-07-26T07:18:39.027Z,25.76
2018-07-26T07:19:38.785Z,25.81
2018-07-26T07:20:38.887Z,25.88
2018-07-26T07:21:38.812Z,25.91
2018-07-26T07:22:38.773Z,25.94
2018-07-26T07:23:38.827Z,25.98
2018-07-26T07:24:38.872Z,26
2018-07-26T07:25:38.766Z,26.01
2018-07-26T07:26:38.796Z,26.08
2018-07-26T07:27:39.005Z,26.14
2018-07-26T07:28:38.745Z,26.17
2018-07-26T07:29:38.751Z,26.19
2018-07-26T07:30:38.825Z,26.23
2018-07-26T07:31:38.938Z,26.24
2018-07-26T07:32:38.810Z,26.28
2018-07-26T07:33:38.837Z,26.33
2018-07-26T07:34:38.854Z,26.38
2018-07-26T07:35:38.816Z,26.4
2018-07-26T07:36:38.767Z,26.44
2018-07-26T07:37:38.727Z,26.5
2018-07-26T07:38:38.811Z,26.52
2018-07-26T07:39:38.747Z,26.55
2018-07-26T07:40:38.824Z,26.61
2018-07-26T07:41:38.737Z,26.63
2018-07-26T07:42:39.220Z,26.68
2018-07-26T07:43:38.738Z,26.71
2018-07-26T07:44:39.133Z,26.73
2018-07-26T07:45:38.769Z,26.76
2018-07-26T07:46:39.345Z,26.79
2018-07-26T07:47:39.662Z,26.82
2018-07-26T07:48:38.877Z,26.88
2018-07-26T07:49:38.803Z,26.95
2018-07-26T07:50:38.824Z,27.04
2018-07-26T07:51:38.786Z,27.06
2018-07-26T07:52:38.727Z,27.06
2018-07-26T07:53:38.786Z,27.12
2018-07-26T07:54:38.792Z,27.15
2018-07-26T07:55:39.428Z,27.17
2018-07-26T07:56:38.925Z,27.2
2018-07-26T07:57:38.982Z,27.22
2018-07-26T07:58:38.840Z,27.25
2018-07-26T07:59:39.385Z,27.3
2018-07-26T08:00:38.733Z,27.33
2018-07-26T08:01:38.768Z,27.36
2018-07-26T08:02:38.747Z,27.42
2018-07-26T08:03:38.739Z,27.44
2018-07-26T08:04:38.782Z,27.46
2018-07-26T08:05:38.830Z,27.5
2018-07-26T08:06:39.022Z,27.5
2018-07-26T08:07:38.748Z,27.57
2018-07-26T08:08:38.747Z,27.59
2018-07-26T08:09:38.779Z,27.72
2018-07-26T08:10:38.742Z,27.73
2018-07-26T08:11:38.751Z,27.75
2018-07-26T08:12:39.503Z,27.78
2018-07-26T08:13:38.745Z,27.77
2018-07-26T08:14:38.722Z,27.79
2018-07-26T08:15:38.728Z,27.8
2018-07-26T08:16:38.723Z,28.06
2018-07-26T08:17:38.729Z,28.02
2018-07-26T08:18:38.737Z,28.02
2018-07-26T08:19:38.784Z,28.04
2018-07-26T08:20:38.765Z,28.06
2018-07-26T08:21:38.750Z,28.11
2018-07-26T08:22:38.738Z,28.17
2018-07-26T08:23:38.747Z,28.17
2018-07-26T08:24:38.715Z,28.18
2018-07-26T08:25:38.759Z,28.22
2018-07-26T08:26:38.755Z,28.27
2018-07-26T08:27:38.799Z,28.31
2018-07-26T08:28:38.735Z,28.36
2018-07-26T08:29:38.779Z,28.36
2018-07-26T08:30:38.765Z,28.4
2018-07-26T08:31:38.724Z,28.42
2018-07-26T08:32:39.360Z,28.43
2018-07-26T08:33:38.748Z,28.47
2018-07-26T08:34:38.752Z,28.47
2018-07-26T08:35:39.069Z,28.5
2018-07-26T08:36:38.873Z,28.54
2018-07-26T08:37:39.585Z,28.55
2018-07-26T08:38:38.725Z,28.57
2018-07-26T08:39:38.790Z,28.64
2018-07-26T08:40:38.803Z,28.64
2018-07-26T08:41:38.765Z,28.64
2018-07-26T08:42:38.736Z,28.67
2018-07-26T08:43:39.383Z,28.75
2018-07-26T08:44:38.713Z,28.81
2018-07-26T08:45:38.732Z,28.82
2018-07-26T08:46:38.765Z,28.81
2018-07-26T08:47:38.797Z,28.87
2018-07-26T08:48:38.792Z,28.86
2018-07-26T08:49:38.734Z,28.87
2018-07-26T08:50:38.749Z,28.88
2018-07-26T08:51:38.734Z,29.04
2018-07-26T08:52:38.819Z,29.04
2018-07-26T08:53:38.731Z,29.08
2018-07-26T08:54:38.685Z,29.09
2018-07-26T08:55:41.716Z,29.12
2018-07-26T08:56:41.900Z,29.12
2018-07-26T08:57:38.742Z,29.17
2018-07-26T08:58:38.761Z,29.2
2018-07-26T08:59:38.727Z,29.22
2018-07-26T09:00:38.759Z,29.28
2018-07-26T09:01:38.813Z,29.33
2018-07-26T09:02:38.991Z,29.31
2018-07-26T09:03:38.757Z,29.36
2018-07-26T09:04:38.699Z,29.44
2018-07-26T09:05:38.715Z,29.53
2018-07-26T09:06:38.737Z,29.54
2018-07-26T09:07:38.702Z,29.6
2018-07-26T09:08:39.010Z,29.6
2018-07-26T09:09:38.754Z,29.63
2018-07-26T09:10:38.790Z,29.69
2018-07-26T09:11:39.797Z,29.72
2018-07-26T09:12:38.774Z,29.75
2018-07-26T09:13:38.995Z,29.79
2018-07-26T09:14:38.740Z,29.81
2018-07-26T09:15:38.775Z,29.94
2018-07-26T09:16:38.757Z,29.95
2018-07-26T09:17:38.722Z,29.94
2018-07-26T09:18:38.892Z,29.97
2018-07-26T09:19:39.240Z,30
2018-07-26T09:20:38.823Z,30.03
2018-07-26T09:21:38.713Z,30.04
2018-07-26T09:22:38.774Z,30.06
2018-07-26T09:23:38.720Z,30.07
2018-07-26T09:24:38.786Z,30.1
2018-07-26T09:25:38.744Z,30.12
2018-07-26T09:26:38.712Z,30.13
2018-07-26T09:27:38.723Z,30.18
2018-07-26T09:28:38.740Z,30.28
2018-07-26T09:29:38.754Z,30.32
2018-07-26T09:30:38.717Z,30.32
2018-07-26T09:31:38.725Z,30.36
2018-07-26T09:32:38.723Z,30.4
2018-07-26T09:33:38.758Z,30.44
2018-07-26T09:34:38.781Z,30.45
2018-07-26T09:35:38.734Z,30.47
2018-07-26T09:36:38.706Z,30.5
2018-07-26T09:37:38.735Z,30.56
2018-07-26T09:38:38.759Z,30.54
2018-07-26T09:39:38.704Z,30.56
2018-07-26T09:40:38.730Z,30.57
2018-07-26T09:41:38.898Z,30.57
2018-07-26T09:42:38.828Z,30.6
2018-07-26T09:43:38.902Z,30.64
2018-07-26T09:44:38.819Z,30.64
2018-07-26T09:45:38.763Z,30.65
2018-07-26T09:46:38.729Z,30.68
2018-07-26T09:47:38.956Z,30.69
2018-07-26T09:48:38.746Z,30.7
2018-07-26T09:49:39.189Z,30.69
2018-07-26T09:50:38.863Z,30.74
2018-07-26T09:51:38.726Z,30.76
2018-07-26T09:52:38.890Z,30.81
2018-07-26T09:53:38.904Z,30.8
2018-07-26T09:54:38.892Z,30.77
2018-07-26T09:55:39.113Z,30.83
2018-07-26T09:56:38.798Z,30.92
2018-07-26T09:57:38.796Z,30.97
2018-07-26T09:58:38.812Z,30.97
2018-07-26T09:59:38.707Z,30.95
2018-07-26T10:00:38.920Z,30.94
2018-07-26T10:01:38.828Z,30.99
2018-07-26T10:02:38.878Z,31.05
2018-07-26T10:03:38.853Z,31.08
2018-07-26T10:04:39.063Z,31.08
2018-07-26T10:05:39.936Z,31.22
2018-07-26T10:06:38.766Z,31.21
2018-07-26T10:07:38.716Z,31.25
2018-07-26T10:08:38.760Z,31.28
2018-07-26T10:09:38.826Z,31.3
2018-07-26T10:10:38.745Z,31.34
2018-07-26T10:11:38.741Z,31.4
2018-07-26T10:12:38.808Z,31.48
2018-07-26T10:13:38.718Z,31.55
2018-07-26T10:14:38.714Z,31.56
2018-07-26T10:15:38.822Z,31.54
2018-07-26T10:16:38.754Z,31.54
2018-07-26T10:17:38.786Z,31.64
2018-07-26T10:18:38.770Z,31.48
2018-07-26T10:19:38.983Z,31.31
2018-07-26T10:20:38.738Z,31.34
2018-07-26T10:21:38.810Z,31.34
2018-07-26T10:22:38.826Z,31.34
2018-07-26T10:23:38.876Z,31.34
2018-07-26T10:24:38.867Z,31.48
2018-07-26T10:25:38.949Z,31.57
2018-07-26T10:26:38.956Z,31.58
2018-07-26T10:27:39.104Z,31.61
2018-07-26T10:28:38.734Z,31.63
2018-07-26T10:29:38.772Z,31.6
2018-07-26T10:30:38.744Z,31.61
2018-07-26T10:31:38.760Z,31.62
2018-07-26T10:32:38.856Z,31.64
2018-07-26T10:33:38.736Z,31.68
2018-07-26T10:34:38.894Z,31.76
2018-07-26T10:35:38.721Z,31.78
2018-07-26T10:36:38.725Z,31.8
2018-07-26T10:37:38.727Z,31.85
2018-07-26T10:38:38.880Z,31.89
2018-07-26T10:39:38.714Z,31.84
2018-07-26T10:40:38.741Z,31.87
2018-07-26T10:41:38.838Z,31.88
2018-07-26T10:42:38.764Z,31.95
2018-07-26T10:43:38.779Z,32
2018-07-26T10:44:39.617Z,32
2018-07-26T10:45:38.727Z,32.05
2018-07-26T10:46:38.752Z,32.11
2018-07-26T10:47:38.733Z,32.12
2018-07-26T10:48:38.753Z,32.09
2018-07-26T10:49:38.744Z,32.14
2018-07-26T10:50:38.894Z,32.2
2018-07-26T10:51:38.759Z,32.22
2018-07-26T10:52:38.787Z,32.23
2018-07-26T10:53:38.886Z,32.25
2018-07-26T10:54:38.701Z,32.3
2018-07-26T10:55:38.944Z,32.3
2018-07-26T10:56:38.762Z,32.34
2018-07-26T10:57:38.746Z,32.35
2018-07-26T10:58:38.703Z,32.4
2018-07-26T10:59:38.728Z,32.45
2018-07-26T11:00:38.725Z,32.44
2018-07-26T11:01:38.836Z,32.47
2018-07-26T11:02:38.699Z,32.53
2018-07-26T11:03:39.057Z,32.52
2018-07-26T11:04:38.953Z,32.51
2018-07-26T11:05:38.965Z,32.52
2018-07-26T11:06:38.849Z,32.55
2018-07-26T11:07:38.706Z,32.55
2018-07-26T11:08:38.909Z,32.58
2018-07-26T11:09:39.340Z,32.61
2018-07-26T11:10:38.875Z,32.6
2018-07-26T11:11:38.771Z,32.59
2018-07-26T11:12:38.741Z,32.63
2018-07-26T11:13:38.804Z,32.59
2018-07-26T11:14:38.847Z,32.59
2018-07-26T11:15:38.734Z,32.64
2018-07-26T11:16:39.490Z,32.66
2018-07-26T11:17:38.791Z,32.68
2018-07-26T11:18:38.745Z,32.67
2018-07-26T11:19:38.797Z,32.7
2018-07-26T11:20:38.713Z,32.7
2018-07-26T11:21:38.779Z,32.71
2018-07-26T11:22:38.718Z,32.67
2018-07-26T11:23:38.895Z,32.66
2018-07-26T11:24:38.766Z,32.65
2018-07-26T11:25:39.481Z,32.64
2018-07-26T11:26:38.790Z,32.8
2018-07-26T11:27:38.910Z,32.79
2018-07-26T11:28:38.724Z,32.82
2018-07-26T11:29:39.356Z,32.85
2018-07-26T11:30:38.762Z,32.9
2018-07-26T11:31:38.719Z,32.92
2018-07-26T11:32:39.394Z,32.98
2018-07-26T11:33:38.854Z,32.97
2018-07-26T11:34:38.724Z,32.95
2018-07-26T11:35:38.795Z,32.91
2018-07-26T11:36:38.717Z,32.91
2018-07-26T11:37:38.732Z,32.97
2018-07-26T11:38:38.725Z,33.04
2018-07-26T11:39:38.760Z,33.08
2018-07-26T11:40:39.331Z,33.14
2018-07-26T11:41:39.095Z,33.18
2018-07-26T11:42:38.820Z,33.21
2018-07-26T11:43:39.147Z,33.26
2018-07-26T11:44:38.784Z,33.29
2018-07-26T11:45:38.764Z,33.33
2018-07-26T11:46:38.911Z,33.32
2018-07-26T11:47:38.738Z,33.33
2018-07-26T11:48:38.853Z,33.38
2018-07-26T11:49:38.741Z,33.36
2018-07-26T11:50:38.718Z,33.36
2018-07-26T11:51:38.721Z,33.39
2018-07-26T11:52:39.205Z,33.4
2018-07-26T11:53:38.739Z,33.4
2018-07-26T11:54:38.927Z,33.42
2018-07-26T11:55:38.714Z,33.44
2018-07-26T11:56:38.728Z,33.44
2018-07-26T11:57:38.724Z,33.48
2018-07-26T11:58:38.780Z,33.54
2018-07-26T11:59:38.728Z,33.59
2018-07-26T12:00:38.765Z,33.62
2018-07-26T12:01:39.519Z,33.65
2018-07-26T12:02:38.734Z,33.66
2018-07-26T12:03:38.841Z,33.66
2018-07-26T12:04:38.729Z,33.68
2018-07-26T12:05:38.722Z,33.72
2018-07-26T12:06:38.713Z,33.73
2018-07-26T12:07:38.830Z,33.76
2018-07-26T12:08:38.721Z,33.79
2018-07-26T12:09:38.727Z,33.82
2018-07-26T12:10:38.762Z,33.86
2018-07-26T12:11:38.941Z,33.9
2018-07-26T12:12:38.827Z,33.9
2018-07-26T12:13:38.764Z,33.74
2018-07-26T12:14:38.720Z,33.77
2018-07-26T12:15:38.729Z,33.85
2018-07-26T12:16:38.753Z,33.96
2018-07-26T12:17:39.049Z,33.97
2018-07-26T12:18:38.739Z,33.92
2018-07-26T12:19:39.193Z,33.87
2018-07-26T12:20:38.707Z,33.92
2018-07-26T12:21:38.742Z,33.92
2018-07-26T12:22:38.707Z,33.94
2018-07-26T12:23:38.733Z,33.99
2018-07-26T12:24:38.840Z,34.03
2018-07-26T12:25:38.716Z,34.03
2018-07-26T12:26:39.217Z,34.08
2018-07-26T12:27:38.721Z,34.11
2018-07-26T12:28:38.727Z,34.16
2018-07-26T12:29:42.740Z,34.26
2018-07-26T12:30:38.741Z,34.19
2018-07-26T12:31:38.728Z,34.11
2018-07-26T12:32:38.727Z,34.17
2018-07-26T12:33:38.770Z,34.21
2018-07-26T12:34:38.714Z,34.25
2018-07-26T12:35:38.716Z,34.28
2018-07-26T12:36:38.762Z,34.32
2018-07-26T12:37:38.807Z,34.35
2018-07-26T12:38:38.830Z,34.53
2018-07-26T12:39:38.726Z,34.54
2018-07-26T12:40:38.783Z,34.55
2018-07-26T12:41:38.723Z,34.59
2018-07-26T12:42:38.768Z,34.6
2018-07-26T12:43:39.380Z,34.65
2018-07-26T12:44:38.829Z,34.64
2018-07-26T12:45:38.700Z,34.68
2018-07-26T12:46:38.840Z,34.69
2018-07-26T12:47:39.427Z,34.54
2018-07-26T12:48:38.804Z,34.5
2018-07-26T12:49:38.748Z,34.52
2018-07-26T12:50:38.736Z,34.54
2018-07-26T12:51:38.715Z,34.56
2018-07-26T12:52:41.123Z,34.58
2018-07-26T12:53:38.776Z,34.65
2018-07-26T12:54:39.015Z,34.47
2018-07-26T12:55:39.296Z,34.56
2018-07-26T12:56:38.736Z,34.65
2018-07-26T12:57:38.794Z,34.68